createdAt,value
2017-12-06T00:00:33.107Z,12.50
2017-12-06T00:02:35.811Z,12.60
2017-12-06T00:04:38.456Z,12.70
2017-12-06T00:06:41.095Z,13.30
2017-12-06T00:08:43.799Z,13.00
2017-12-06T00:10:46.436Z,12.10
2017-12-06T00:12:55.572Z,11.70
2017-12-06T00:15:03.942Z,12.20
2017-12-06T00:17:06.598Z,11.80
2017-12-06T00:19:09.253Z,12.23
2017-12-06T00:21:11.916Z,11.07
2017-12-06T00:23:14.557Z,10.53
2017-12-06T00:25:17.947Z,10.83
2017-12-06T00:27:21.375Z,10.90
2017-12-06T00:29:24.007Z,10.50
2017-12-06T00:31:26.657Z,11.20
2017-12-06T00:33:29.347Z,11.00
2017-12-06T00:35:33.995Z,11.47
2017-12-06T00:37:37.425Z,12.33
2017-12-06T00:39:40.090Z,12.00
2017-12-06T00:41:43.513Z,12.20
2017-12-06T00:43:46.171Z,11.77
2017-12-06T00:45:48.886Z,12.07
2017-12-06T00:47:51.540Z,11.80
2017-12-06T00:49:54.221Z,12.70
2017-12-06T00:51:56.854Z,13.03
2017-12-06T00:53:59.509Z,13.27
2017-12-06T00:56:02.260Z,12.90
2017-12-06T00:58:04.910Z,13.40
2017-12-06T01:00:07.601Z,14.00
2017-12-06T01:02:10.244Z,15.07
2017-12-06T01:04:12.887Z,13.37
2017-12-06T01:06:16.346Z,14.57
2017-12-06T01:08:18.997Z,14.20
2017-12-06T01:10:21.675Z,14.17
2017-12-06T01:12:24.357Z,14.13
2017-12-06T01:14:27.008Z,14.20
2017-12-06T01:16:29.656Z,14.13
2017-12-06T01:18:32.315Z,14.80
2017-12-06T01:20:37.970Z,16.23
2017-12-06T01:22:41.394Z,14.63
2017-12-06T01:24:44.066Z,14.10
2017-12-06T01:26:47.477Z,15.50
2017-12-06T01:28:50.149Z,16.33
2017-12-06T01:30:52.794Z,16.13
2017-12-06T01:32:55.449Z,15.27
2017-12-06T01:34:58.932Z,15.13
2017-12-06T01:37:01.585Z,16.20
2017-12-06T01:39:04.281Z,16.30
2017-12-06T01:41:07.732Z,17.10
2017-12-06T01:43:10.376Z,16.67
2017-12-06T01:45:16.946Z,17.87
2017-12-06T01:47:19.640Z,17.57
2017-12-06T01:49:22.298Z,17.50
2017-12-06T01:51:25.105Z,17.17
2017-12-06T01:53:27.806Z,17.77
2017-12-06T01:55:30.455Z,18.40
2017-12-06T01:57:33.123Z,18.57
2017-12-06T01:59:35.885Z,18.03
2017-12-06T02:01:41.337Z,17.47
2017-12-06T02:03:44.002Z,18.70
2017-12-06T02:05:46.747Z,18.90
2017-12-06T02:07:50.150Z,19.37
2017-12-06T02:09:53.575Z,18.10
2017-12-06T02:11:56.273Z,18.87
2017-12-06T02:13:58.942Z,18.70
2017-12-06T02:16:01.615Z,18.50
2017-12-06T02:18:04.296Z,18.90
2017-12-06T02:20:06.984Z,19.67
2017-12-06T02:22:09.744Z,19.53
2017-12-06T02:24:12.449Z,19.97
2017-12-06T02:26:15.922Z,19.40
2017-12-06T02:28:18.607Z,20.17
2017-12-06T02:30:21.314Z,20.33
2017-12-06T02:32:24.006Z,20.37
2017-12-06T02:34:26.686Z,19.37
2017-12-06T02:36:29.353Z,20.53
2017-12-06T02:38:32.010Z,21.63
2017-12-06T02:40:47.438Z,19.80
2017-12-06T02:43:01.828Z,20.10
2017-12-06T02:45:17.132Z,20.57
2017-12-06T02:47:19.772Z,19.90
2017-12-06T02:49:23.266Z,21.10
2017-12-06T02:51:26.707Z,20.90
2017-12-06T02:53:30.126Z,19.80
2017-12-06T02:55:32.834Z,20.13
2017-12-06T02:57:36.270Z,20.07
2017-12-06T02:59:38.895Z,19.73
2017-12-06T03:01:42.351Z,19.57
2017-12-06T03:03:44.988Z,19.80
2017-12-06T03:05:47.648Z,20.57
2017-12-06T03:07:51.078Z,18.73
2017-12-06T03:09:54.483Z,19.33
2017-12-06T03:11:57.137Z,19.63
2017-12-06T03:13:59.795Z,19.27
2017-12-06T03:16:02.453Z,19.10
2017-12-06T03:18:05.868Z,18.90
2017-12-06T03:20:08.519Z,19.07
2017-12-06T03:22:11.936Z,19.60
2017-12-06T03:24:14.565Z,17.67
2017-12-06T03:26:17.242Z,17.97
2017-12-06T03:28:19.891Z,18.17
2017-12-06T03:30:22.539Z,19.70
2017-12-06T03:32:25.213Z,18.00
2017-12-06T03:34:27.894Z,18.50
2017-12-06T03:36:30.556Z,17.37
2017-12-06T03:38:33.278Z,17.23
2017-12-06T03:40:35.936Z,17.20
2017-12-06T03:42:38.582Z,17.80
2017-12-06T03:44:41.288Z,18.00
2017-12-06T03:46:43.958Z,18.03
2017-12-06T03:48:46.592Z,16.90
2017-12-06T03:50:50.023Z,18.60
2017-12-06T03:52:52.674Z,16.93
2017-12-06T03:54:55.325Z,17.90
2017-12-06T03:56:58.786Z,17.80
2017-12-06T03:59:01.447Z,17.90
2017-12-06T04:01:04.127Z,18.23
2017-12-06T04:03:07.815Z,17.37
2017-12-06T04:05:10.458Z,17.47
2017-12-06T04:07:13.101Z,17.27
2017-12-06T04:09:15.826Z,18.03
2017-12-06T04:11:18.519Z,17.70
2017-12-06T04:13:21.173Z,17.40
2017-12-06T04:15:25.035Z,17.60
2017-12-06T04:17:28.486Z,17.80
2017-12-06T04:19:31.217Z,18.03
2017-12-06T04:21:34.669Z,18.27
2017-12-06T04:23:38.237Z,18.60
2017-12-06T04:25:42.046Z,18.50
2017-12-06T04:27:44.841Z,18.37
2017-12-06T04:29:47.498Z,18.30
2017-12-06T04:31:50.313Z,18.27
2017-12-06T04:33:53.057Z,18.53
2017-12-06T04:35:55.701Z,17.20
2017-12-06T04:37:58.352Z,17.50
2017-12-06T04:40:01.041Z,17.60
2017-12-06T04:42:04.458Z,17.63
2017-12-06T04:44:07.166Z,16.70
2017-12-06T04:46:10.262Z,16.27
2017-12-06T04:48:32.503Z,16.80
2017-12-06T04:50:35.168Z,17.47
2017-12-06T04:52:37.806Z,17.10
2017-12-06T04:54:41.226Z,16.80
2017-12-06T04:56:43.884Z,17.43
2017-12-06T04:58:46.610Z,16.13
2017-12-06T05:00:50.025Z,15.57
2017-12-06T05:02:52.718Z,15.20
2017-12-06T05:04:55.380Z,14.17
2017-12-06T05:06:58.043Z,15.27
2017-12-06T05:09:01.474Z,14.73
2017-12-06T05:11:04.160Z,15.30
2017-12-06T05:13:06.909Z,14.17
2017-12-06T05:15:09.566Z,14.10
2017-12-06T05:17:12.198Z,13.63
2017-12-06T05:19:15.021Z,13.97
2017-12-06T05:21:18.445Z,13.77
2017-12-06T05:23:21.096Z,12.13
2017-12-06T05:25:26.975Z,13.20
2017-12-06T05:27:29.615Z,11.93
2017-12-06T05:29:32.255Z,12.70
2017-12-06T05:31:34.915Z,13.33
2017-12-06T05:33:37.564Z,13.17
2017-12-06T05:35:40.210Z,14.80
2017-12-06T05:37:43.649Z,14.97
2017-12-06T05:39:46.293Z,13.10
2017-12-06T05:41:48.928Z,12.40
2017-12-06T05:43:52.355Z,12.80
2017-12-06T05:45:54.983Z,14.17
2017-12-06T05:47:57.653Z,12.27
2017-12-06T05:50:00.341Z,13.13
2017-12-06T05:52:03.001Z,13.83
2017-12-06T05:54:05.657Z,13.33
2017-12-06T05:56:08.320Z,15.10
2017-12-06T05:58:11.753Z,15.23
2017-12-06T06:00:14.398Z,14.47
2017-12-06T06:02:17.050Z,15.73
2017-12-06T06:04:19.693Z,15.10
2017-12-06T06:06:23.138Z,15.00
2017-12-06T06:08:36.506Z,14.60
2017-12-06T06:10:39.476Z,14.37
2017-12-06T06:12:42.149Z,12.80
2017-12-06T06:14:44.820Z,13.90
2017-12-06T06:16:47.629Z,13.40
2017-12-06T06:18:50.334Z,13.93
2017-12-06T06:20:52.980Z,12.97
2017-12-06T06:22:56.383Z,12.53
2017-12-06T06:24:59.077Z,13.30
2017-12-06T06:27:02.470Z,12.57
2017-12-06T06:29:05.122Z,12.70
2017-12-06T06:31:08.551Z,12.77
2017-12-06T06:33:11.210Z,12.07
2017-12-06T06:35:13.891Z,12.03
2017-12-06T06:37:16.907Z,12.60
2017-12-06T06:39:19.685Z,13.37
2017-12-06T06:41:23.150Z,10.63
2017-12-06T06:43:26.147Z,10.73
2017-12-06T06:45:28.805Z,10.60
2017-12-06T06:47:31.447Z,11.10
2017-12-06T06:49:34.892Z,10.47
2017-12-06T06:51:37.538Z,9.60
2017-12-06T06:53:40.203Z,10.50
2017-12-06T06:55:42.863Z,9.57
2017-12-06T06:57:46.293Z,10.30
2017-12-06T06:59:48.968Z,10.60
2017-12-06T07:01:52.380Z,10.50
2017-12-06T07:03:55.033Z,11.07
2017-12-06T07:05:57.691Z,9.90
2017-12-06T07:08:00.353Z,10.67
2017-12-06T07:10:03.864Z,10.70
2017-12-06T07:12:06.667Z,10.90
2017-12-06T07:14:09.320Z,11.33
2017-12-06T07:16:19.328Z,10.17
2017-12-06T07:18:25.609Z,11.27
2017-12-06T07:20:28.252Z,10.73
2017-12-06T07:22:30.905Z,10.97
2017-12-06T07:24:39.099Z,10.60
2017-12-06T07:26:41.788Z,11.10
2017-12-06T07:28:44.458Z,10.63
2017-12-06T07:30:47.161Z,10.40
2017-12-06T07:32:49.826Z,11.20
2017-12-06T07:34:52.471Z,11.10
2017-12-06T07:36:56.214Z,10.70
2017-12-06T07:38:58.906Z,11.53
2017-12-06T07:41:02.325Z,10.13
2017-12-06T07:43:05.978Z,10.97
2017-12-06T07:45:08.652Z,11.30
2017-12-06T07:47:11.344Z,10.60
2017-12-06T07:49:14.783Z,10.10
2017-12-06T07:51:17.420Z,10.50
2017-12-06T07:53:20.841Z,11.33
2017-12-06T07:55:23.501Z,10.40
2017-12-06T07:57:26.152Z,11.17
2017-12-06T07:59:29.652Z,11.03
2017-12-06T08:01:33.100Z,10.20
2017-12-06T08:03:35.771Z,11.30
2017-12-06T08:05:38.508Z,10.70
2017-12-06T08:09:53.258Z,10.97
2017-12-06T08:11:56.679Z,11.53
2017-12-06T08:13:59.378Z,11.87
2017-12-06T08:16:11.100Z,10.90
2017-12-06T08:18:13.758Z,11.00
2017-12-06T08:20:16.450Z,11.17
2017-12-06T08:24:46.751Z,11.10
2017-12-06T08:26:49.423Z,10.77
2017-12-06T08:28:52.113Z,10.60
2017-12-06T08:30:54.778Z,11.33
2017-12-06T08:32:57.448Z,10.87
2017-12-06T08:35:00.103Z,11.07
2017-12-06T08:37:02.747Z,10.60
2017-12-06T08:39:06.210Z,11.20
2017-12-06T08:41:08.881Z,10.87
2017-12-06T08:43:18.456Z,10.17
2017-12-06T08:45:21.901Z,10.27
2017-12-06T08:47:24.576Z,9.93
2017-12-06T08:49:27.251Z,9.67
2017-12-06T08:51:29.910Z,10.77
2017-12-06T08:53:32.564Z,10.00
2017-12-06T08:55:50.502Z,11.50
2017-12-06T08:57:53.162Z,10.70
2017-12-06T08:59:56.581Z,10.13
2017-12-06T09:01:59.251Z,10.50
2017-12-06T09:04:01.906Z,10.40
2017-12-06T09:06:05.347Z,10.33
2017-12-06T09:08:08.051Z,10.83
2017-12-06T09:10:10.715Z,10.20
2017-12-06T09:12:13.390Z,10.50
2017-12-06T09:14:16.065Z,10.27
2017-12-06T09:16:18.729Z,9.60
2017-12-06T09:18:21.388Z,9.73
2017-12-06T09:20:24.072Z,9.27
2017-12-06T09:22:26.778Z,10.17
2017-12-06T09:24:29.431Z,10.03
2017-12-06T09:26:32.122Z,9.90
2017-12-06T09:28:34.806Z,11.03
2017-12-06T09:30:37.480Z,10.60
2017-12-06T09:32:40.144Z,9.77
2017-12-06T09:34:42.826Z,10.53
2017-12-06T09:36:45.503Z,10.70
2017-12-06T09:38:48.146Z,11.10
2017-12-06T09:40:50.927Z,11.10
2017-12-06T09:42:54.598Z,10.73
2017-12-06T09:44:59.242Z,10.23
2017-12-06T09:47:01.923Z,10.00
2017-12-06T09:49:04.745Z,9.27
2017-12-06T09:51:08.139Z,9.60
2017-12-06T09:53:11.573Z,9.33
2017-12-06T09:55:14.207Z,9.33
2017-12-06T09:57:16.911Z,9.20
2017-12-06T09:59:19.819Z,10.00
2017-12-06T10:01:22.476Z,10.23
2017-12-06T10:03:25.145Z,9.67
2017-12-06T10:05:28.795Z,9.67
2017-12-06T10:07:31.440Z,9.37
2017-12-06T10:09:34.090Z,9.30
2017-12-06T10:11:36.771Z,8.17
2017-12-06T10:13:40.186Z,8.50
2017-12-06T10:15:42.839Z,8.10
2017-12-06T10:17:45.488Z,8.50
2017-12-06T10:19:48.134Z,8.70
2017-12-06T10:21:50.806Z,9.17
2017-12-06T10:23:53.481Z,9.37
2017-12-06T10:25:56.134Z,8.37
2017-12-06T10:28:00.825Z,8.70
2017-12-06T10:30:03.534Z,8.57
2017-12-06T10:32:06.179Z,9.07
2017-12-06T10:34:08.822Z,9.03
2017-12-06T10:36:12.296Z,8.77
2017-12-06T10:38:14.964Z,9.33
2017-12-06T10:40:17.609Z,9.80
2017-12-06T10:42:20.315Z,9.57
2017-12-06T10:44:22.957Z,9.50
2017-12-06T10:46:25.620Z,11.00
2017-12-06T10:48:28.298Z,9.37
2017-12-06T10:50:30.973Z,9.57
2017-12-06T10:52:33.631Z,9.30
2017-12-06T10:54:36.285Z,9.60
2017-12-06T10:56:39.748Z,9.10
2017-12-06T10:58:42.442Z,9.90
2017-12-06T11:00:45.115Z,9.60
2017-12-06T11:02:47.819Z,10.40
2017-12-06T11:04:50.498Z,10.80
2017-12-06T11:06:53.141Z,10.60
2017-12-06T11:08:55.798Z,12.00
2017-12-06T11:10:59.463Z,10.57
2017-12-06T11:13:02.129Z,12.27
2017-12-06T11:15:06.878Z,12.77
2017-12-06T11:17:13.218Z,11.87
2017-12-06T11:19:15.853Z,11.00
2017-12-06T11:21:18.572Z,12.13
2017-12-06T11:23:22.252Z,13.00
2017-12-06T11:25:24.902Z,12.27
2017-12-06T11:27:27.752Z,12.47
2017-12-06T11:29:33.561Z,11.40
2017-12-06T11:31:36.200Z,11.47
2017-12-06T11:33:40.875Z,11.10
2017-12-06T11:35:43.671Z,11.83
2017-12-06T11:37:46.902Z,12.10
2017-12-06T11:39:50.606Z,11.80
2017-12-06T11:41:54.068Z,12.67
2017-12-06T11:43:56.732Z,11.77
2017-12-06T11:45:59.421Z,12.00
2017-12-06T11:48:03.067Z,11.90
2017-12-06T11:50:05.697Z,12.17
2017-12-06T11:52:08.362Z,11.83
2017-12-06T11:54:11.013Z,11.53
2017-12-06T11:56:13.757Z,11.90
2017-12-06T11:58:17.213Z,12.13
2017-12-06T12:00:19.888Z,12.00
2017-12-06T12:02:22.599Z,12.43
2017-12-06T12:04:26.022Z,12.40
2017-12-06T12:06:28.680Z,11.90
2017-12-06T12:08:31.330Z,12.30
2017-12-06T12:10:34.762Z,12.33
2017-12-06T12:12:37.457Z,11.10
2017-12-06T12:14:40.113Z,12.57
2017-12-06T12:16:42.780Z,13.87
2017-12-06T12:18:45.458Z,12.47
2017-12-06T12:20:48.099Z,12.73
2017-12-06T12:22:51.521Z,13.27
2017-12-06T12:24:54.169Z,11.80
2017-12-06T12:26:57.903Z,12.73
2017-12-06T12:29:00.592Z,11.97
2017-12-06T12:31:03.281Z,12.17
2017-12-06T12:33:05.917Z,11.90
2017-12-06T12:35:08.640Z,11.70
2017-12-06T12:37:11.383Z,11.73
2017-12-06T12:39:14.081Z,12.30
2017-12-06T12:41:16.794Z,11.57
2017-12-06T12:43:25.346Z,11.67
2017-12-06T12:45:28.132Z,12.60
2017-12-06T12:47:30.941Z,12.07
2017-12-06T12:49:33.618Z,10.97
2017-12-06T12:51:36.309Z,12.00
2017-12-06T12:53:39.796Z,11.83
2017-12-06T12:55:43.285Z,12.17
2017-12-06T12:57:45.967Z,12.27
2017-12-06T12:59:48.685Z,11.00
2017-12-06T13:01:51.378Z,10.37
2017-12-06T13:03:54.826Z,10.90
2017-12-06T13:05:58.305Z,10.73
2017-12-06T13:08:00.970Z,10.23
2017-12-06T13:10:03.659Z,10.83
2017-12-06T13:12:06.343Z,10.50
2017-12-06T13:14:09.190Z,11.40
2017-12-06T13:16:11.906Z,12.10
2017-12-06T13:18:15.368Z,13.00
2017-12-06T13:20:18.052Z,11.20
2017-12-06T13:22:20.812Z,11.70
2017-12-06T13:24:24.067Z,10.50
2017-12-06T13:26:26.873Z,11.80
2017-12-06T13:28:29.643Z,11.33
2017-12-06T13:30:32.349Z,11.37
2017-12-06T13:32:35.101Z,12.40
2017-12-06T13:34:37.873Z,11.17
2017-12-06T13:36:41.507Z,12.17
2017-12-06T13:38:50.771Z,11.43
2017-12-06T13:40:53.477Z,10.77
2017-12-06T13:42:56.270Z,12.40
2017-12-06T13:44:58.982Z,13.00
2017-12-06T13:47:01.763Z,11.40
2017-12-06T13:49:05.357Z,12.43
2017-12-06T13:51:08.088Z,12.40
2017-12-06T13:53:10.811Z,11.60
2017-12-06T13:55:14.358Z,11.73
2017-12-06T13:57:17.071Z,13.20
2017-12-06T13:59:20.516Z,12.43
2017-12-06T14:01:23.297Z,15.53
2017-12-06T14:03:25.984Z,15.20
2017-12-06T14:05:28.967Z,14.63
2017-12-06T14:07:31.874Z,15.00
2017-12-06T14:09:35.614Z,14.07
2017-12-06T14:11:38.349Z,14.23
2017-12-06T14:13:42.105Z,14.40
2017-12-06T14:15:44.834Z,15.57
2017-12-06T14:17:47.598Z,14.17
2017-12-06T14:19:50.300Z,15.23
2017-12-06T14:21:52.959Z,16.03
2017-12-06T14:23:55.635Z,14.70
2017-12-06T14:25:59.079Z,15.30
2017-12-06T14:28:01.772Z,16.00
2017-12-06T14:30:04.494Z,15.17
2017-12-06T14:32:07.226Z,15.30
2017-12-06T14:34:09.895Z,16.70
2017-12-06T14:36:12.662Z,15.23
2017-12-06T14:38:15.357Z,15.47
2017-12-06T14:40:18.040Z,16.10
2017-12-06T14:42:20.707Z,15.97
2017-12-06T14:44:23.479Z,17.13
2017-12-06T14:46:26.888Z,16.73
2017-12-06T14:48:29.589Z,17.37
2017-12-06T14:50:33.047Z,16.83
2017-12-06T14:52:35.736Z,16.50
2017-12-06T14:54:38.399Z,18.10
2017-12-06T14:56:41.097Z,16.63
2017-12-06T14:58:43.755Z,17.30
2017-12-06T15:00:46.433Z,17.13
2017-12-06T15:02:49.138Z,18.00
2017-12-06T15:04:52.618Z,16.77
2017-12-06T15:06:56.117Z,17.20
2017-12-06T15:09:03.331Z,17.80
2017-12-06T15:11:06.106Z,17.27
2017-12-06T15:15:40.580Z,17.47
2017-12-06T15:17:47.012Z,18.67
2017-12-06T15:19:49.715Z,17.60
2017-12-06T15:21:52.408Z,17.23
2017-12-06T15:23:55.920Z,18.23
2017-12-06T15:26:24.971Z,19.03
2017-12-06T15:28:40.106Z,19.10
2017-12-06T15:30:45.054Z,18.73
2017-12-06T15:32:47.928Z,18.27
2017-12-06T15:34:58.775Z,18.10
2017-12-06T15:37:01.487Z,18.27
2017-12-06T15:39:04.274Z,20.10
2017-12-06T15:41:06.984Z,18.40
2017-12-06T15:43:10.675Z,19.17
2017-12-06T15:45:13.372Z,17.47
2017-12-06T15:47:29.554Z,18.33
2017-12-06T15:49:55.583Z,18.80
2017-12-06T15:52:00.424Z,18.13
2017-12-06T15:54:03.927Z,17.90
2017-12-06T15:56:07.459Z,18.53
2017-12-06T15:58:10.168Z,17.70
2017-12-06T16:00:13.839Z,17.90
2017-12-06T16:02:16.916Z,19.00
2017-12-06T16:04:19.674Z,18.90
2017-12-06T16:06:23.320Z,17.93
2017-12-06T16:08:26.591Z,17.20
2017-12-06T16:10:29.932Z,18.10
2017-12-06T16:12:34.634Z,17.93
2017-12-06T16:14:38.095Z,19.03
2017-12-06T16:16:42.561Z,18.20
2017-12-06T16:18:47.059Z,18.03
2017-12-06T16:20:50.584Z,17.90
2017-12-06T16:22:53.283Z,17.73
2017-12-06T16:24:56.166Z,18.43
2017-12-06T16:26:59.126Z,20.10
2017-12-06T16:29:01.854Z,18.43
2017-12-06T16:31:05.401Z,18.13
2017-12-06T16:33:08.166Z,18.93
2017-12-06T16:35:22.954Z,18.57
2017-12-06T16:37:31.985Z,18.37
2017-12-06T16:39:34.714Z,18.57
2017-12-06T16:41:37.420Z,20.10
2017-12-06T16:43:45.981Z,19.67
2017-12-06T16:45:48.715Z,20.13
2017-12-06T16:47:51.433Z,18.20
2017-12-06T16:49:54.883Z,19.20
2017-12-06T16:51:57.683Z,18.90
2017-12-06T16:54:00.351Z,19.00
2017-12-06T16:56:03.038Z,20.50
2017-12-06T16:58:05.723Z,19.33
2017-12-06T17:00:08.400Z,18.90
2017-12-06T17:02:11.287Z,19.10
2017-12-06T17:04:14.789Z,18.67
2017-12-06T17:06:18.353Z,18.10
2017-12-06T17:08:21.173Z,18.33
2017-12-06T17:10:23.871Z,18.33
2017-12-06T17:12:26.596Z,20.20
2017-12-06T17:14:29.333Z,19.10
2017-12-06T17:16:32.043Z,18.07
2017-12-06T17:18:34.718Z,18.63
2017-12-06T17:20:37.445Z,18.33
2017-12-06T17:22:40.183Z,18.20
2017-12-06T17:24:43.634Z,19.27
2017-12-06T17:26:47.255Z,18.70
2017-12-06T17:29:01.804Z,19.13
2017-12-06T17:31:16.284Z,19.50
2017-12-06T17:33:18.980Z,19.20
2017-12-06T17:35:21.892Z,19.63
2017-12-06T17:37:24.651Z,18.63
2017-12-06T17:39:27.454Z,18.80
2017-12-06T17:41:30.133Z,18.93
2017-12-06T17:43:32.841Z,20.23
2017-12-06T17:45:35.590Z,19.83
2017-12-06T17:47:38.278Z,18.87
2017-12-06T17:49:40.980Z,18.03
2017-12-06T17:51:44.420Z,18.43
2017-12-06T17:53:47.129Z,19.27
2017-12-06T17:56:00.970Z,18.90
2017-12-06T17:58:03.661Z,18.00
2017-12-06T18:00:09.625Z,20.03
2017-12-06T18:02:12.297Z,20.03
2017-12-06T18:04:15.750Z,18.60
2017-12-06T18:06:18.489Z,20.07
2017-12-06T18:08:21.193Z,19.70
2017-12-06T18:10:23.906Z,19.03
2017-12-06T18:12:27.392Z,20.03
2017-12-06T18:14:30.078Z,20.90
2017-12-06T18:16:33.514Z,18.53
2017-12-06T18:18:36.231Z,19.37
2017-12-06T18:20:38.884Z,18.73
2017-12-06T18:22:45.335Z,19.70
2017-12-06T18:24:48.154Z,19.00
2017-12-06T18:26:50.875Z,19.30
2017-12-06T18:28:53.577Z,18.70
2017-12-06T18:30:56.606Z,19.20
2017-12-06T18:33:00.082Z,19.80
2017-12-06T18:35:03.097Z,18.33
2017-12-06T18:37:27.074Z,18.90
2017-12-06T18:39:29.811Z,19.00
2017-12-06T18:41:32.506Z,18.97
2017-12-06T18:43:36.056Z,19.73
2017-12-06T18:45:38.795Z,19.47
2017-12-06T18:47:41.461Z,18.40
2017-12-06T18:49:44.897Z,18.60
2017-12-06T18:51:47.612Z,17.50
2017-12-06T18:53:51.424Z,18.83
2017-12-06T18:55:54.871Z,17.90
2017-12-06T18:57:57.594Z,18.97
2017-12-06T19:00:01.088Z,18.70
2017-12-06T19:02:03.983Z,17.57
2017-12-06T19:04:12.516Z,18.57
2017-12-06T19:06:15.300Z,18.00
2017-12-06T19:08:18.045Z,18.30
2017-12-06T19:10:21.637Z,18.43
2017-12-06T19:12:25.071Z,18.80
2017-12-06T19:14:29.828Z,18.00
2017-12-06T19:16:56.365Z,18.70
2017-12-06T19:18:59.011Z,18.03
2017-12-06T19:21:01.676Z,17.40
2017-12-06T19:23:05.709Z,16.40
2017-12-06T19:25:08.350Z,17.47
2017-12-06T19:27:11.033Z,17.30
2017-12-06T19:29:25.911Z,17.63
2017-12-06T19:31:28.767Z,17.20
2017-12-06T19:33:31.853Z,17.80
2017-12-06T19:35:40.189Z,16.87
2017-12-06T19:37:55.988Z,16.93
2017-12-06T19:39:58.639Z,17.67
2017-12-06T19:42:01.296Z,17.20
2017-12-06T19:44:03.954Z,18.20
2017-12-06T19:46:06.714Z,15.70
2017-12-06T19:48:10.234Z,15.37
2017-12-06T19:50:12.888Z,16.00
2017-12-06T19:52:16.305Z,16.27
2017-12-06T19:54:18.980Z,15.43
2017-12-06T19:56:21.631Z,15.20
2017-12-06T19:58:25.045Z,15.43
2017-12-06T20:00:27.709Z,15.43
2017-12-06T20:02:30.343Z,16.57
2017-12-06T20:04:33.005Z,15.27
2017-12-06T20:06:35.706Z,14.47
2017-12-06T20:08:39.321Z,14.67
2017-12-06T20:10:41.960Z,15.27
2017-12-06T20:12:44.625Z,15.10
2017-12-06T20:14:47.259Z,14.70
2017-12-06T20:16:49.905Z,14.37
2017-12-06T20:18:53.410Z,13.70
2017-12-06T20:20:57.307Z,14.53
2017-12-06T20:23:00.699Z,14.90
2017-12-06T20:25:04.282Z,15.73
2017-12-06T20:27:06.929Z,15.40
2017-12-06T20:29:09.579Z,14.53
2017-12-06T20:31:12.283Z,14.63
2017-12-06T20:33:14.933Z,15.50
2017-12-06T20:35:17.573Z,14.63
2017-12-06T20:37:21.013Z,15.50
2017-12-06T20:39:23.652Z,16.80
2017-12-06T20:41:26.421Z,14.60
2017-12-06T20:43:29.150Z,14.80
2017-12-06T20:45:31.784Z,13.53
2017-12-06T20:47:34.452Z,14.47
2017-12-06T20:49:37.147Z,14.27
2017-12-06T20:51:39.839Z,15.20
2017-12-06T20:53:42.579Z,14.00
2017-12-06T20:55:45.272Z,14.33
2017-12-06T20:57:47.945Z,13.70
2017-12-06T20:59:50.623Z,15.33
2017-12-06T21:01:53.279Z,14.80
2017-12-06T21:03:55.918Z,15.37
2017-12-06T21:05:58.555Z,16.77
2017-12-06T21:08:01.259Z,15.40
2017-12-06T21:10:03.926Z,15.23
2017-12-06T21:12:06.579Z,14.57
2017-12-06T21:14:09.246Z,15.07
2017-12-06T21:16:12.906Z,16.63
2017-12-06T21:18:15.787Z,14.90
2017-12-06T21:20:19.486Z,14.03
2017-12-06T21:22:22.973Z,14.30
2017-12-06T21:24:25.835Z,15.30
2017-12-06T21:26:29.695Z,14.77
2017-12-06T21:28:32.431Z,13.93
2017-12-06T21:30:35.075Z,14.57
2017-12-06T21:32:37.886Z,15.20
2017-12-06T21:34:40.548Z,14.87
2017-12-06T21:36:43.303Z,16.30
2017-12-06T21:38:46.058Z,14.97
2017-12-06T21:40:48.693Z,13.90
2017-12-06T21:42:51.349Z,14.53
2017-12-06T21:44:54.069Z,14.37
2017-12-06T21:46:56.696Z,13.77
2017-12-06T21:48:59.346Z,13.97
2017-12-06T21:51:02.014Z,14.70
2017-12-06T21:53:04.770Z,13.40
2017-12-06T21:55:07.435Z,12.70
2017-12-06T21:57:10.913Z,12.90
2017-12-06T21:59:13.624Z,12.47
2017-12-06T22:01:16.283Z,13.30
2017-12-06T22:03:18.981Z,13.23
2017-12-06T22:05:21.661Z,12.50
2017-12-06T22:07:24.324Z,12.57
2017-12-06T22:09:27.021Z,10.90
2017-12-06T22:11:29.705Z,11.13
2017-12-06T22:13:32.411Z,11.10
2017-12-06T22:15:35.849Z,11.90
2017-12-06T22:17:38.497Z,10.90
2017-12-06T22:19:41.929Z,10.43
2017-12-06T22:21:44.586Z,10.40
2017-12-06T22:23:47.245Z,10.30
2017-12-06T22:25:53.984Z,10.47
2017-12-06T22:27:56.640Z,10.70
2017-12-06T22:29:59.374Z,10.80
2017-12-06T22:32:02.031Z,10.73
2017-12-06T22:34:05.441Z,11.07
2017-12-06T22:36:10.151Z,10.80
2017-12-06T22:38:13.589Z,10.13
2017-12-06T22:40:16.242Z,10.00
2017-12-06T22:42:18.977Z,9.90
2017-12-06T22:44:21.691Z,11.40
2017-12-06T22:46:24.340Z,10.80
2017-12-06T22:48:26.991Z,11.30
2017-12-06T22:50:35.744Z,9.23
2017-12-06T22:52:38.411Z,9.63
2017-12-06T22:54:41.861Z,10.10
2017-12-06T22:56:44.515Z,9.07
2017-12-06T22:58:47.164Z,8.63
2017-12-06T23:00:49.841Z,9.10
2017-12-06T23:02:52.476Z,8.23
2017-12-06T23:04:55.145Z,8.40
2017-12-06T23:06:57.825Z,8.30
2017-12-06T23:09:00.533Z,8.33
2017-12-06T23:11:03.934Z,7.90
2017-12-06T23:13:06.606Z,8.27
2017-12-06T23:15:09.297Z,9.07
2017-12-06T23:17:11.940Z,7.73
2017-12-06T23:19:15.382Z,7.80
2017-12-06T23:21:18.229Z,7.87
2017-12-06T23:23:20.897Z,8.20
2017-12-06T23:25:24.342Z,7.40
2017-12-06T23:27:26.981Z,8.30
2017-12-06T23:29:29.640Z,8.07
2017-12-06T23:31:32.386Z,8.27
2017-12-06T23:33:34.999Z,7.73
2017-12-06T23:35:37.835Z,8.13
2017-12-06T23:37:40.510Z,8.03
2017-12-06T23:39:43.943Z,8.73
2017-12-06T23:41:46.637Z,9.17
2017-12-06T23:43:49.315Z,8.97
2017-12-06T23:45:51.969Z,8.90
2017-12-06T23:47:54.595Z,8.83
2017-12-06T23:49:57.432Z,9.20
2017-12-06T23:52:00.075Z,7.90
2017-12-06T23:54:03.489Z,9.27
2017-12-06T23:56:06.156Z,8.50
2017-12-06T23:58:09.571Z,9.30
